Time;durP1;ratioP1;P1;durP2;ratioP2;P2;SDS_P1;SDS_P2;PMS_P1;PMS_P2;Temp;Humidity;BMP_temperature;BMP_pressure;BME280_temperature;BME280_humidity;BME280_pressure;Samples;Min_cycle;Max_cycle;Signal;HPM_P1;HPM_P2
2022/07/11 00:00:29;;;;;;;3.10;1.90;;;;;;;;;;5111355;28;20020;-69
2022/07/11 00:03:37;;;;;;;3.55;1.60;;;;;;;;;;5111055;27;20380;-69
2022/07/11 00:06:03;;;;;;;3.70;1.90;;;;;;;;;;5111293;28;20544;-70
2022/07/11 00:08:29;;;;;;;2.30;1.80;;;;;;;;;;5110949;28;20426;-69
2022/07/11 00:10:55;;;;;;;3.50;1.58;;;;;;;;;;5110004;28;20032;-69
2022/07/11 00:15:26;;;;;;;2.20;1.42;;;;;;;;;;5111682;27;20396;-70
2022/07/11 00:17:52;;;;;;;2.38;1.60;;;;;;;;;;5111388;28;20403;-70
2022/07/11 00:26:54;;;;;;;2.53;1.63;;;;;;;;;;5111364;27;20393;-69
2022/07/11 00:29:20;;;;;;;4.90;1.80;;;;;;;;;;5110051;28;20032;-69
2022/07/11 00:31:46;;;;;;;3.08;1.70;;;;;;;;;;5110843;28;20019;-69
2022/07/11 00:34:12;;;;;;;3.03;1.65;;;;;;;;;;5111202;28;20020;-70
2022/07/11 00:36:39;;;;;;;3.60;1.65;;;;;;;;;;5110818;28;20384;-70
2022/07/11 00:42:22;;;;;;;5.30;1.90;;;;;;;;;;5112205;27;20430;-70
2022/07/11 00:46:53;;;;;;;3.17;2.00;;;;;;;;;;5111752;27;20397;-69
2022/07/11 00:51:12;;;;;;;3.28;1.80;;;;;;;;;;5031100;27;20426;-69
2022/07/11 00:56:46;;;;;;;2.00;1.17;;;;;;;;;;5111594;27;20336;-69
2022/07/11 00:59:53;;;;;;;2.85;1.40;;;;;;;;;;5110990;27;20787;-69
2022/07/11 01:02:19;;;;;;;5.63;1.75;;;;;;;;;;5110088;28;20128;-69
2022/07/11 01:04:46;;;;;;;3.80;1.63;;;;;;;;;;5110968;28;20404;-70
2022/07/11 01:07:31;;;;;;;1.85;1.20;;;;;;;;;;5111744;27;20508;-69
2022/07/11 01:13:13;;;;;;;3.35;1.63;;;;;;;;;;5111274;27;20396;-70
2022/07/11 01:16:30;;;;;;;2.25;1.20;;;;;;;;;;5111934;27;20481;-69
2022/07/11 01:20:40;;;;;;;3.15;1.10;;;;;;;;;;5111023;27;20385;-69
2022/07/11 01:24:13;;;;;;;2.97;1.25;;;;;;;;;;5112138;27;20389;-69
2022/07/11 01:26:58;;;;;;;1.45;1.13;;;;;;;;;;5110944;27;20424;-70
2022/07/11 01:31:21;;;;;;;1.25;1.00;;;;;;;;;;5112009;27;20396;-69
2022/07/11 01:34:24;;;;;;;2.22;1.38;;;;;;;;;;5111178;27;20435;-69
2022/07/11 01:38:23;;;;;;;2.15;1.27;;;;;;;;;;5111642;27;20448;-70
2022/07/11 01:40:49;;;;;;;1.50;1.10;;;;;;;;;;5110968;28;20015;-70
2022/07/11 01:44:59;;;;;;;3.15;1.30;;;;;;;;;;5111364;27;20447;-69
2022/07/11 01:47:25;;;;;;;4.55;1.48;;;;;;;;;;5109720;28;20038;-69
2022/07/11 01:51:36;;;;;;;1.58;1.00;;;;;;;;;;5111680;27;20495;-69
2022/07/11 01:54:02;;;;;;;2.22;1.20;;;;;;;;;;5110970;28;20020;-69
2022/07/11 01:56:29;;;;;;;1.50;1.10;;;;;;;;;;5111303;28;20066;-69
2022/07/11 01:59:46;;;;;;;2.70;1.30;;;;;;;;;;5111546;27;20393;-69
2022/07/11 02:02:13;;;;;;;1.65;1.00;;;;;;;;;;5126753;28;20369;-69
2022/07/11 02:05:58;;;;;;;1.45;1.10;;;;;;;;;;5111479;27;20423;-69
2022/07/11 02:09:03;;;;;;;2.25;1.30;;;;;;;;;;5111117;27;20400;-69
2022/07/11 02:14:23;;;;;;;1.75;1.10;;;;;;;;;;5111725;27;20416;-69
2022/07/11 02:16:49;;;;;;;2.53;1.08;;;;;;;;;;5126793;28;20020;-69
2022/07/11 02:19:15;;;;;;;2.97;0.98;;;;;;;;;;5127182;28;20042;-70
2022/07/11 02:22:46;;;;;;;12.98;1.85;;;;;;;;;;5111514;27;20428;-69
2022/07/11 02:25:32;;;;;;;3.33;1.63;;;;;;;;;;5112013;27;20416;-69
2022/07/11 02:27:59;;;;;;;1.05;0.95;;;;;;;;;;5111410;28;20030;-70
2022/07/11 02:30:51;;;;;;;5.70;1.20;;;;;;;;;;5111194;27;20427;-70
2022/07/11 02:33:46;;;;;;;2.75;1.35;;;;;;;;;;5111951;27;20470;-69
2022/07/11 02:36:12;;;;;;;2.30;1.13;;;;;;;;;;5126791;28;20027;-69
2022/07/11 02:38:39;;;;;;;2.65;1.20;;;;;;;;;;5111183;28;20028;-69
2022/07/11 02:41:05;;;;;;;2.50;1.30;;;;;;;;;;5111421;28;20509;-69
2022/07/11 02:45:06;;;;;;;4.68;1.35;;;;;;;;;;5111149;27;20491;-69
2022/07/11 02:47:33;;;;;;;2.67;1.35;;;;;;;;;;5111531;28;20043;-69
2022/07/11 02:49:59;;;;;;;2.00;1.00;;;;;;;;;;5111286;28;20024;-69
2022/07/11 02:52:25;;;;;;;2.10;1.30;;;;;;;;;;5110911;28;20035;-69
2022/07/11 02:54:51;;;;;;;2.15;1.10;;;;;;;;;;5111329;28;20030;-69
2022/07/11 02:57:17;;;;;;;2.03;1.15;;;;;;;;;;5110776;28;20494;-69
2022/07/11 03:00:15;;;;;;;3.58;1.10;;;;;;;;;;5111515;27;20472;-70
2022/07/11 03:02:42;;;;;;;2.70;1.10;;;;;;;;;;5127210;28;20028;-70
2022/07/11 03:07:41;;;;;;;9.13;1.75;;;;;;;;;;5111979;27;20937;-69
2022/07/11 03:10:08;;;;;;;2.25;1.30;;;;;;;;;;5111354;28;20035;-71
2022/07/11 03:18:21;;;;;;;4.65;1.70;;;;;;;;;;5111081;27;20392;-70
2022/07/11 03:20:47;;;;;;;4.82;2.03;;;;;;;;;;5111358;28;20020;-69
2022/07/11 03:23:13;;;;;;;4.88;1.38;;;;;;;;;;5111330;28;20019;-69
2022/07/11 03:25:39;;;;;;;2.70;1.40;;;;;;;;;;5111119;28;20024;-69
2022/07/11 03:28:05;;;;;;;2.90;1.60;;;;;;;;;;5111518;28;20043;-69
2022/07/11 03:30:32;;;;;;;3.05;1.40;;;;;;;;;;5111306;28;20035;-69
2022/07/11 03:33:42;;;;;;;3.38;1.33;;;;;;;;;;5111285;27;20435;-69
2022/07/11 03:36:08;;;;;;;3.78;1.20;;;;;;;;;;5111444;28;20042;-69
2022/07/11 03:40:18;;;;;;;1.83;1.30;;;;;;;;;;5051225;28;20454;-69
2022/07/11 03:42:44;;;;;;;2.97;1.35;;;;;;;;;;5066219;28;20490;-70
2022/07/11 03:46:48;;;;;;;1.58;1.30;;;;;;;;;;5111610;27;20499;-70
2022/07/11 03:49:14;;;;;;;1.63;1.20;;;;;;;;;;5111358;28;20430;-70
2022/07/11 03:55:31;;;;;;;2.15;1.10;;;;;;;;;;5110939;27;20826;-70
2022/07/11 03:59:30;;;;;;;2.95;1.23;;;;;;;;;;5132260;27;20422;-70
2022/07/11 04:01:56;;;;;;;2.50;1.45;;;;;;;;;;5131392;28;20027;-69
2022/07/11 04:05:46;;;;;;;5.97;1.30;;;;;;;;;;5111708;27;20508;-70
2022/07/11 04:08:12;;;;;;;7.32;1.40;;;;;;;;;;5110948;28;20499;-70
2022/07/11 04:10:38;;;;;;;2.75;1.40;;;;;;;;;;5111333;28;20020;-70
2022/07/11 04:13:19;;;;;;;4.30;1.23;;;;;;;;;;5112230;27;20912;-70
2022/07/11 04:15:45;;;;;;;2.58;1.40;;;;;;;;;;5109696;28;20388;-70
2022/07/11 04:19:47;;;;;;;1.65;1.20;;;;;;;;;;5112072;27;20753;-70
2022/07/11 04:22:13;;;;;;;2.53;1.10;;;;;;;;;;5111014;28;20020;-70
2022/07/11 04:26:12;;;;;;;2.00;1.05;;;;;;;;;;5111686;27;20484;-70
2022/07/11 04:34:00;;;;;;;4.05;1.38;;;;;;;;;;5112071;27;20416;-70
2022/07/11 04:36:26;;;;;;;3.28;1.48;;;;;;;;;;5111031;28;20024;-70
2022/07/11 04:38:52;;;;;;;2.70;1.30;;;;;;;;;;5111394;28;20026;-70
2022/07/11 04:41:18;;;;;;;2.40;1.20;;;;;;;;;;5127290;28;20107;-70
2022/07/11 04:44:19;;;;;;;2.47;1.35;;;;;;;;;;5111182;27;20392;-70
2022/07/11 04:46:45;;;;;;;2.80;1.50;;;;;;;;;;5111408;28;20077;-71
2022/07/11 04:49:11;;;;;;;3.17;1.20;;;;;;;;;;5111345;28;20027;-70
2022/07/11 04:52:52;;;;;;;2.83;1.60;;;;;;;;;;5112054;27;20454;-70
2022/07/11 04:55:18;;;;;;;2.03;1.23;;;;;;;;;;5110164;28;20020;-70
2022/07/11 04:57:45;;;;;;;2.17;1.40;;;;;;;;;;5109588;28;20491;-70
2022/07/11 05:00:11;;;;;;;1.92;1.33;;;;;;;;;;5111318;28;20387;-70
2022/07/11 05:02:37;;;;;;;2.60;1.20;;;;;;;;;;5111235;28;20103;-71
2022/07/11 05:05:04;;;;;;;1.90;1.23;;;;;;;;;;5111019;28;20054;-70
2022/07/11 05:08:47;;;;;;;2.05;1.10;;;;;;;;;;5051100;27;20388;-76
2022/07/11 05:11:13;;;;;;;2.40;1.30;;;;;;;;;;5065806;28;20049;-76
2022/07/11 05:13:40;;;;;;;3.15;1.65;;;;;;;;;;5050743;28;20526;-76
2022/07/11 05:16:06;;;;;;;3.83;1.30;;;;;;;;;;5050792;28;20021;-77
2022/07/11 05:19:31;;;;;;;5.13;1.67;;;;;;;;;;5111216;27;20423;-74
2022/07/11 05:23:03;;;;;;;6.05;1.73;;;;;;;;;;5111953;27;20393;-74
2022/07/11 05:25:29;;;;;;;3.42;1.25;;;;;;;;;;5110944;28;20081;-74
2022/07/11 05:35:03;;;;;;;1.60;1.10;;;;;;;;;;5112053;27;20446;-73
2022/07/11 05:37:29;;;;;;;2.28;1.42;;;;;;;;;;5110120;28;20450;-73
2022/07/11 05:42:09;;;;;;;1.90;1.17;;;;;;;;;;5111566;27;20478;-73
2022/07/11 05:44:46;;;;;;;1.45;1.10;;;;;;;;;;5108992;27;20978;-74
2022/07/11 05:48:15;;;;;;;1.60;0.95;;;;;;;;;;5069677;28;20403;-76
2022/07/11 05:52:36;;;;;;;3.25;1.80;;;;;;;;;;5111121;27;20481;-74
2022/07/11 05:57:16;;;;;;;5.88;1.40;;;;;;;;;;5111221;27;20862;-73
2022/07/11 05:59:42;;;;;;;3.10;1.45;;;;;;;;;;5111244;28;20031;-73
2022/07/11 06:03:09;;;;;;;1.55;0.90;;;;;;;;;;5111506;27;20446;-75
2022/07/11 06:05:35;;;;;;;1.98;1.13;;;;;;;;;;5111290;28;20032;-75
2022/07/11 06:10:46;;;;;;;2.20;1.27;;;;;;;;;;5109251;28;20035;-74
2022/07/11 06:13:30;;;;;;;1.52;0.90;;;;;;;;;;5110030;27;20392;-73
2022/07/11 06:15:56;;;;;;;1.88;1.10;;;;;;;;;;5109171;28;20025;-74
2022/07/11 06:19:00;;;;;;;2.00;0.90;;;;;;;;;;5105087;27;20426;-73
2022/07/11 06:26:47;;;;;;;4.63;1.63;;;;;;;;;;5030960;28;20465;-75
2022/07/11 06:29:14;;;;;;;2.90;1.40;;;;;;;;;;5026293;28;20021;-74
2022/07/11 06:31:41;;;;;;;3.35;0.85;;;;;;;;;;5026876;28;20017;-75
2022/07/11 06:34:07;;;;;;;2.20;0.90;;;;;;;;;;5024464;28;20514;-74
2022/07/11 06:37:21;;;;;;;3.55;1.00;;;;;;;;;;5127242;27;20108;-73
2022/07/11 06:41:18;;;;;;;2.85;1.10;;;;;;;;;;5103716;27;20473;-76
2022/07/11 06:45:03;;;;;;;4.25;1.00;;;;;;;;;;5066419;28;20435;-74
2022/07/11 06:47:29;;;;;;;1.98;1.27;;;;;;;;;;5070679;28;20107;-73
2022/07/11 06:49:55;;;;;;;3.35;1.40;;;;;;;;;;5085827;28;20385;-74
2022/07/11 06:53:39;;;;;;;2.63;1.30;;;;;;;;;;5110520;27;20397;-73
2022/07/11 06:57:36;;;;;;;2.45;1.38;;;;;;;;;;5111137;27;20389;-74
2022/07/11 07:00:02;;;;;;;1.48;0.80;;;;;;;;;;5096542;28;20028;-73
2022/07/11 07:02:30;;;;;;;1.88;0.80;;;;;;;;;;5072413;28;20025;-71
2022/07/11 07:09:11;;;;;;;3.63;0.60;;;;;;;;;;5111270;27;20393;-75
2022/07/11 07:11:37;;;;;;;2.00;0.77;;;;;;;;;;5108947;28;20016;-75
2022/07/11 07:17:12;;;;;;;1.58;0.57;;;;;;;;;;5109581;27;20412;-74
2022/07/11 07:19:38;;;;;;;3.38;0.60;;;;;;;;;;5107369;28;20073;-75
2022/07/11 07:22:08;;;;;;;3.65;0.55;;;;;;;;;;5089974;28;20020;-75
2022/07/11 07:24:35;;;;;;;3.33;1.08;;;;;;;;;;5089534;28;20020;-76
2022/07/11 07:27:02;;;;;;;3.85;1.10;;;;;;;;;;5090216;28;20016;-73
2022/07/11 07:29:28;;;;;;;2.28;0.70;;;;;;;;;;5093122;28;20039;-73
2022/07/11 07:31:54;;;;;;;2.17;0.82;;;;;;;;;;5101189;28;20029;-74
2022/07/11 07:34:21;;;;;;;6.95;1.50;;;;;;;;;;5105237;28;20433;-74
2022/07/11 07:36:47;;;;;;;3.33;1.55;;;;;;;;;;5107693;28;20085;-70
2022/07/11 07:39:13;;;;;;;4.05;0.98;;;;;;;;;;5110284;28;20023;-71
2022/07/11 07:42:25;;;;;;;5.45;1.55;;;;;;;;;;5111259;27;20484;-74
2022/07/11 07:44:51;;;;;;;4.20;1.23;;;;;;;;;;5109575;28;20028;-69
2022/07/11 07:47:17;;;;;;;2.58;0.77;;;;;;;;;;5110714;28;20426;-70
2022/07/11 07:49:43;;;;;;;6.05;1.02;;;;;;;;;;5109674;28;20122;-70
2022/07/11 07:53:35;;;;;;;2.60;0.82;;;;;;;;;;5110688;27;20392;-71
2022/07/11 07:56:01;;;;;;;1.42;0.82;;;;;;;;;;5109864;28;20035;-71
2022/07/11 07:58:27;;;;;;;3.53;1.30;;;;;;;;;;5111065;28;20046;-69
2022/07/11 08:05:04;;;;;;;2.90;1.10;;;;;;;;;;5111321;27;20439;-72
2022/07/11 08:07:30;;;;;;;3.70;0.77;;;;;;;;;;5110701;28;20024;-71
2022/07/11 08:09:57;;;;;;;4.28;1.50;;;;;;;;;;5109790;28;20089;-70
2022/07/11 08:12:23;;;;;;;1.65;0.70;;;;;;;;;;5110969;28;20540;-73
2022/07/11 08:14:49;;;;;;;2.50;1.70;;;;;;;;;;5110456;28;20035;-74
2022/07/11 08:17:15;;;;;;;1.65;0.73;;;;;;;;;;5110951;28;20016;-73
2022/07/11 08:19:41;;;;;;;4.05;0.90;;;;;;;;;;5109466;28;20106;-73
2022/07/11 08:22:34;;;;;;;1.45;0.65;;;;;;;;;;5050256;28;20439;-72
2022/07/11 08:25:00;;;;;;;0.88;0.60;;;;;;;;;;5034332;28;20441;-72
2022/07/11 08:27:27;;;;;;;1.27;0.70;;;;;;;;;;5030474;28;20381;-71
2022/07/11 08:29:53;;;;;;;1.98;0.80;;;;;;;;;;5045496;28;20030;-72
2022/07/11 08:32:19;;;;;;;0.90;0.50;;;;;;;;;;5030394;28;20033;-73
2022/07/11 08:34:46;;;;;;;2.10;0.65;;;;;;;;;;5042571;28;20473;-74
2022/07/11 08:37:12;;;;;;;1.33;0.70;;;;;;;;;;5048837;28;20079;-75
2022/07/11 08:39:38;;;;;;;1.38;0.65;;;;;;;;;;5050147;28;20051;-75
2022/07/11 08:42:04;;;;;;;0.57;0.52;;;;;;;;;;5049462;28;20037;-74
2022/07/11 08:44:31;;;;;;;0.93;0.68;;;;;;;;;;5048495;28;20032;-73
2022/07/11 08:48:16;;;;;;;1.23;0.55;;;;;;;;;;5110989;27;20412;-73
2022/07/11 08:50:42;;;;;;;2.03;0.52;;;;;;;;;;5126326;28;20544;-73
2022/07/11 08:55:43;;;;;;;1.15;0.50;;;;;;;;;;5109660;27;20412;-77
2022/07/11 09:05:12;;;;;;;3.00;1.15;;;;;;;;;;5110509;27;20412;-74
2022/07/11 09:07:46;;;;;;;2.10;0.70;;;;;;;;;;5110920;28;20028;-75
2022/07/11 09:12:23;;;;;;;1.42;0.77;;;;;;;;;;5111154;27;20389;-76
2022/07/11 09:14:51;;;;;;;1.88;0.90;;;;;;;;;;5110088;28;20035;-77
2022/07/11 09:26:05;;;;;;;1.23;0.60;;;;;;;;;;5108743;27;20374;-73
2022/07/11 09:30:39;;;;;;;1.35;0.93;;;;;;;;;;5107850;27;20420;-73
2022/07/11 09:33:09;;;;;;;1.35;0.80;;;;;;;;;;5108243;28;20044;-74
2022/07/11 09:37:42;;;;;;;2.20;0.68;;;;;;;;;;5109467;27;20469;-74
2022/07/11 09:40:08;;;;;;;;;;;;;;;;;;5109518;28;20036;-72
2022/07/11 09:42:47;;;;;;;1.30;0.77;;;;;;;;;;5110669;28;20370;-73
2022/07/11 09:47:20;;;;;;;2.35;1.00;;;;;;;;;;5110866;27;20314;-72
2022/07/11 09:49:47;;;;;;;3.03;0.90;;;;;;;;;;5109736;28;20036;-74
2022/07/11 09:52:14;;;;;;;2.15;0.70;;;;;;;;;;5110641;28;20023;-75
2022/07/11 09:54:56;;;;;;;1.23;0.85;;;;;;;;;;5109540;28;20449;-75
2022/07/11 09:57:29;;;;;;;1.87;0.67;;;;;;;;;;5109583;28;20034;-76
2022/07/11 09:59:56;;;;;;;2.50;0.60;;;;;;;;;;5108205;28;20244;-74
2022/07/11 10:04:35;;;;;;;3.20;0.70;;;;;;;;;;5108606;27;20961;-75
2022/07/11 10:07:01;;;;;;;0.85;0.68;;;;;;;;;;5108694;28;20020;-74
2022/07/11 10:09:28;;;;;;;2.25;0.70;;;;;;;;;;5108934;28;20073;-74
2022/07/11 10:11:54;;;;;;;1.35;0.70;;;;;;;;;;5124756;28;20027;-74
2022/07/11 10:14:21;;;;;;;1.92;0.90;;;;;;;;;;5124986;28;20028;-75
2022/07/11 10:16:58;;;;;;;0.95;0.73;;;;;;;;;;5106526;28;20501;-75
2022/07/11 10:19:46;;;;;;;3.05;0.70;;;;;;;;;;5093652;28;20388;-74
2022/07/11 10:22:18;;;;;;;1.52;0.88;;;;;;;;;;5088675;28;20024;-74
2022/07/11 10:26:47;;;;;;;0.93;0.50;;;;;;;;;;5111341;27;20430;-74
2022/07/11 10:29:20;;;;;;;3.33;0.70;;;;;;;;;;5109495;28;20392;-74
2022/07/11 10:31:46;;;;;;;;;;;;;;;;;;5111688;28;20028;-74
2022/07/11 10:34:18;;;;;;;1.33;0.40;;;;;;;;;;5110756;28;19957;-74
2022/07/11 10:36:45;;;;;;;1.05;0.70;;;;;;;;;;5111169;28;20031;-75
2022/07/11 10:39:27;;;;;;;1.40;0.70;;;;;;;;;;5109841;28;20555;-76
2022/07/11 10:41:53;;;;;;;1.50;0.67;;;;;;;;;;5109305;28;20074;-75
2022/07/11 10:44:20;;;;;;;3.72;0.65;;;;;;;;;;5110702;28;20261;-75
2022/07/11 10:46:46;;;;;;;2.30;0.60;;;;;;;;;;5110703;28;20032;-76
2022/07/11 10:49:15;;;;;;;0.85;0.63;;;;;;;;;;5108934;28;20020;-78
2022/07/11 10:51:47;;;;;;;0.77;0.57;;;;;;;;;;5110471;28;20024;-77
2022/07/11 10:56:10;;;;;;;1.08;0.55;;;;;;;;;;5104174;27;20416;-74
2022/07/11 10:58:41;;;;;;;1.73;0.73;;;;;;;;;;5087977;28;20025;-74
2022/07/11 11:01:11;;;;;;;0.52;0.52;;;;;;;;;;5070703;28;20369;-74
2022/07/11 11:03:38;;;;;;;1.08;0.55;;;;;;;;;;5085507;28;20039;-75
2022/07/11 11:06:04;;;;;;;1.38;0.60;;;;;;;;;;5088330;28;20028;-75
2022/07/11 11:08:34;;;;;;;4.50;0.70;;;;;;;;;;5080743;28;20089;-74
2022/07/11 11:11:07;;;;;;;4.07;0.85;;;;;;;;;;5071064;28;20032;-74
2022/07/11 11:13:37;;;;;;;1.42;0.50;;;;;;;;;;5068868;28;20109;-76
2022/07/11 11:16:17;;;;;;;3.20;1.10;;;;;;;;;;5070076;28;20028;-74
2022/07/11 11:18:44;;;;;;;1.60;0.70;;;;;;;;;;5096055;28;20028;-73
2022/07/11 11:21:10;;;;;;;1.00;0.52;;;;;;;;;;5108231;28;20020;-73
2022/07/11 11:23:37;;;;;;;3.30;0.70;;;;;;;;;;5109663;28;20016;-73
2022/07/11 11:26:11;;;;;;;2.13;0.68;;;;;;;;;;5110740;28;20031;-74
2022/07/11 11:28:37;;;;;;;1.17;0.63;;;;;;;;;;5109290;28;20055;-73
2022/07/11 11:31:04;;;;;;;1.63;0.50;;;;;;;;;;5108831;28;20026;-73
2022/07/11 11:33:32;;;;;;;3.30;0.80;;;;;;;;;;5110468;28;20383;-73
2022/07/11 11:36:05;;;;;;;1.25;0.50;;;;;;;;;;5108415;28;20051;-74
2022/07/11 11:38:40;;;;;;;1.05;0.60;;;;;;;;;;5107957;28;20024;-74
2022/07/11 11:41:07;;;;;;;0.43;0.43;;;;;;;;;;5108410;28;20104;-74
2022/07/11 11:43:33;;;;;;;1.55;0.68;;;;;;;;;;5106898;28;20020;-74
2022/07/11 11:46:00;;;;;;;2.30;1.05;;;;;;;;;;5107523;28;20023;-74
2022/07/11 11:48:34;;;;;;;1.02;0.50;;;;;;;;;;5107946;28;20065;-74
2022/07/11 11:51:10;;;;;;;1.75;0.52;;;;;;;;;;5108387;28;20024;-74
2022/07/11 11:53:41;;;;;;;1.08;0.65;;;;;;;;;;5109733;28;20376;-74
2022/07/11 11:56:17;;;;;;;0.95;0.60;;;;;;;;;;5110094;28;20111;-74
2022/07/11 11:58:44;;;;;;;1.17;0.50;;;;;;;;;;5108421;28;20081;-74
2022/07/11 12:01:14;;;;;;;1.40;1.02;;;;;;;;;;5108706;28;20383;-73
2022/07/11 12:03:59;;;;;;;2.70;1.00;;;;;;;;;;5110125;28;20031;-74
2022/07/11 12:06:36;;;;;;;1.40;0.60;;;;;;;;;;5102341;28;20028;-74
2022/07/11 12:09:09;;;;;;;1.40;0.65;;;;;;;;;;5096315;28;20048;-74
2022/07/11 12:11:36;;;;;;;0.75;0.50;;;;;;;;;;5096775;28;20056;-74
2022/07/11 12:14:03;;;;;;;2.00;0.70;;;;;;;;;;5095781;28;20062;-74
2022/07/11 12:16:42;;;;;;;0.73;0.70;;;;;;;;;;5094917;28;20162;-74
2022/07/11 12:19:14;;;;;;;1.00;0.47;;;;;;;;;;5094893;28;20099;-74
2022/07/11 12:21:40;;;;;;;;;;;;;;;;;;5094799;28;20405;-74
2022/07/11 12:24:07;;;;;;;0.43;0.38;;;;;;;;;;5096028;28;19904;-74
2022/07/11 12:26:34;;;;;;;3.58;0.98;;;;;;;;;;5096214;28;20031;-73
2022/07/11 12:29:03;;;;;;;2.95;0.75;;;;;;;;;;5095450;28;20389;-74
2022/07/11 12:31:43;;;;;;;1.60;0.50;;;;;;;;;;5095928;28;20170;-74
2022/07/11 12:34:09;;;;;;;1.73;0.43;;;;;;;;;;5095262;28;20024;-74
2022/07/11 12:36:35;;;;;;;1.33;0.60;;;;;;;;;;5094500;28;20118;-74
2022/07/11 12:39:01;;;;;;;1.02;0.50;;;;;;;;;;5095508;28;20452;-74
2022/07/11 12:41:32;;;;;;;2.35;0.57;;;;;;;;;;5095148;28;20388;-74
2022/07/11 12:46:43;;;;;;;2.47;0.90;;;;;;;;;;5095787;28;20050;-74
2022/07/11 12:49:12;;;;;;;0.40;0.40;;;;;;;;;;5095079;28;20528;-74
2022/07/11 12:51:40;;;;;;;2.00;0.73;;;;;;;;;;5094144;28;20450;-73
2022/07/11 12:54:08;;;;;;;0.55;0.40;;;;;;;;;;5093306;28;20048;-73
2022/07/11 12:56:35;;;;;;;2.00;1.25;;;;;;;;;;5095095;28;20046;-73
2022/07/11 12:59:02;;;;;;;5.60;1.23;;;;;;;;;;5094079;28;20476;-73
2022/07/11 13:01:29;;;;;;;0.50;0.40;;;;;;;;;;5095308;28;20469;-73
2022/07/11 13:03:56;;;;;;;0.43;0.40;;;;;;;;;;5094784;28;20483;-73
2022/07/11 13:09:08;;;;;;;1.33;0.60;;;;;;;;;;5094913;28;20032;-74
2022/07/11 13:11:34;;;;;;;0.70;0.40;;;;;;;;;;5095071;28;20111;-73
2022/07/11 13:14:01;;;;;;;3.78;0.50;;;;;;;;;;5094749;28;20484;-73
2022/07/11 13:16:27;;;;;;;2.15;0.60;;;;;;;;;;5094469;28;20024;-73
2022/07/11 13:18:54;;;;;;;2.60;0.70;;;;;;;;;;5092454;28;20062;-73
2022/07/11 13:21:20;;;;;;;0.32;0.30;;;;;;;;;;5094799;28;20532;-73
2022/07/11 13:23:47;;;;;;;0.80;0.50;;;;;;;;;;5094356;28;20024;-73
2022/07/11 13:26:13;;;;;;;1.00;0.60;;;;;;;;;;5093426;28;20031;-73
2022/07/11 13:28:39;;;;;;;2.53;0.60;;;;;;;;;;5094596;28;20020;-74
2022/07/11 13:31:05;;;;;;;4.07;0.30;;;;;;;;;;5092832;28;20032;-73
2022/07/11 13:33:32;;;;;;;1.40;0.70;;;;;;;;;;5094641;28;20434;-74
2022/07/11 13:35:59;;;;;;;1.77;0.70;;;;;;;;;;5093239;28;20377;-73
2022/07/11 13:38:25;;;;;;;0.75;0.47;;;;;;;;;;5094182;28;20096;-74
2022/07/11 13:40:51;;;;;;;1.33;0.50;;;;;;;;;;5094274;28;20028;-73
2022/07/11 13:43:18;;;;;;;2.15;0.60;;;;;;;;;;5094337;28;20040;-73
2022/07/11 13:45:45;;;;;;;2.97;0.68;;;;;;;;;;5094099;28;20028;-75
2022/07/11 13:48:11;;;;;;;2.50;0.65;;;;;;;;;;5092966;28;20054;-73
2022/07/11 13:50:37;;;;;;;3.08;0.68;;;;;;;;;;5094308;28;20107;-73
2022/07/11 13:53:03;;;;;;;1.33;0.60;;;;;;;;;;5093759;28;20024;-72
2022/07/11 13:55:30;;;;;;;0.32;0.30;;;;;;;;;;5093882;28;20056;-72
2022/07/11 13:57:57;;;;;;;0.57;0.43;;;;;;;;;;5094157;28;20031;-72
2022/07/11 14:00:23;;;;;;;0.70;0.50;;;;;;;;;;5093612;28;20028;-72
2022/07/11 14:02:49;;;;;;;1.73;0.60;;;;;;;;;;5094133;28;20024;-72
2022/07/11 14:05:18;;;;;;;0.93;0.50;;;;;;;;;;5093785;28;20052;-72
2022/07/11 14:07:44;;;;;;;0.52;0.50;;;;;;;;;;5093986;28;20030;-72
2022/07/11 14:10:10;;;;;;;0.80;0.50;;;;;;;;;;5093922;28;20458;-73
2022/07/11 14:12:37;;;;;;;0.43;0.43;;;;;;;;;;5093508;28;20468;-72
2022/07/11 14:15:03;;;;;;;2.08;0.80;;;;;;;;;;5093777;28;20032;-72
2022/07/11 14:17:29;;;;;;;0.32;0.32;;;;;;;;;;5093902;28;20423;-73
2022/07/11 14:19:56;;;;;;;0.82;0.45;;;;;;;;;;5093409;28;20118;-72
2022/07/11 14:22:23;;;;;;;1.33;0.57;;;;;;;;;;5093730;28;20016;-73
2022/07/11 14:24:49;;;;;;;0.90;0.40;;;;;;;;;;5092471;28;20035;-73
2022/07/11 14:27:15;;;;;;;1.63;0.57;;;;;;;;;;5093349;28;20357;-72
2022/07/11 14:29:43;;;;;;;1.27;0.50;;;;;;;;;;5093464;28;20020;-73
2022/07/11 14:32:10;;;;;;;2.45;0.93;;;;;;;;;;5092326;28;20166;-73
2022/07/11 14:34:36;;;;;;;1.85;0.80;;;;;;;;;;5091810;28;20036;-73
2022/07/11 14:37:04;;;;;;;1.23;0.40;;;;;;;;;;5093610;28;20027;-73
2022/07/11 14:39:30;;;;;;;1.65;0.65;;;;;;;;;;5093503;28;20495;-73
2022/07/11 14:41:57;;;;;;;0.50;0.30;;;;;;;;;;5091834;28;20023;-74
2022/07/11 14:44:24;;;;;;;2.25;0.43;;;;;;;;;;5093421;28;20051;-73
2022/07/11 14:46:50;;;;;;;0.90;0.40;;;;;;;;;;5093455;28;20028;-74
2022/07/11 14:49:16;;;;;;;1.35;0.70;;;;;;;;;;5091807;28;20028;-73
2022/07/11 14:51:42;;;;;;;1.58;0.55;;;;;;;;;;5093432;28;20502;-74
2022/07/11 14:54:08;;;;;;;1.45;0.40;;;;;;;;;;5091872;28;20504;-74
2022/07/11 14:56:37;;;;;;;1.27;0.40;;;;;;;;;;5091703;28;20495;-74
2022/07/11 14:59:04;;;;;;;0.82;0.57;;;;;;;;;;5093390;28;20016;-73
2022/07/11 15:01:31;;;;;;;1.10;0.50;;;;;;;;;;5093071;28;20024;-74
2022/07/11 15:03:57;;;;;;;1.75;0.70;;;;;;;;;;5093340;28;20020;-73
2022/07/11 15:12:20;;;;;;;3.85;0.50;;;;;;;;;;5093319;28;20028;-73
2022/07/11 15:14:39;;;;;;;2.33;0.75;;;;;;;;;;5093234;28;20098;-74
2022/07/11 15:17:05;;;;;;;2.13;0.70;;;;;;;;;;5092772;28;20496;-73
2022/07/11 15:19:31;;;;;;;0.88;0.40;;;;;;;;;;5093368;28;20028;-73
2022/07/11 15:21:57;;;;;;;1.38;0.60;;;;;;;;;;5093040;28;20028;-73
2022/07/11 15:24:24;;;;;;;0.43;0.40;;;;;;;;;;5092823;28;20145;-73
2022/07/11 15:26:50;;;;;;;2.00;0.50;;;;;;;;;;5093090;28;20055;-73
2022/07/11 15:29:16;;;;;;;3.28;0.70;;;;;;;;;;5093150;28;20020;-73
2022/07/11 15:31:42;;;;;;;2.72;0.93;;;;;;;;;;5092780;28;20058;-74
2022/07/11 15:34:09;;;;;;;2.88;1.05;;;;;;;;;;5093219;28;20028;-74
2022/07/11 15:36:35;;;;;;;2.53;0.98;;;;;;;;;;5091644;28;20077;-74
2022/07/11 15:39:01;;;;;;;3.65;1.27;;;;;;;;;;5093130;28;20024;-74
2022/07/11 15:41:27;;;;;;;0.73;0.50;;;;;;;;;;5094288;28;20028;-73
2022/07/11 15:43:53;;;;;;;0.98;0.70;;;;;;;;;;5096412;28;20099;-73
2022/07/11 15:46:19;;;;;;;1.23;0.60;;;;;;;;;;5096881;28;20024;-74
2022/07/11 15:48:46;;;;;;;6.72;0.90;;;;;;;;;;5096732;28;20020;-74
2022/07/11 15:51:12;;;;;;;0.80;0.40;;;;;;;;;;5096512;28;20028;-73
2022/07/11 15:53:38;;;;;;;0.95;0.40;;;;;;;;;;5096676;28;20030;-74
2022/07/11 15:56:04;;;;;;;1.80;0.70;;;;;;;;;;5096228;28;20083;-75
2022/07/11 15:58:34;;;;;;;2.75;1.13;;;;;;;;;;5094759;28;20050;-72
2022/07/11 16:01:03;;;;;;;0.40;0.40;;;;;;;;;;5095150;28;20078;-74
2022/07/11 16:03:29;;;;;;;2.22;0.50;;;;;;;;;;5095209;28;20471;-73
2022/07/11 16:05:58;;;;;;;0.98;0.68;;;;;;;;;;5096053;28;20027;-73
2022/07/11 16:08:25;;;;;;;1.83;0.65;;;;;;;;;;5096308;28;20380;-73
2022/07/11 16:10:51;;;;;;;1.40;0.60;;;;;;;;;;5096264;28;20476;-73
2022/07/11 16:13:17;;;;;;;1.48;0.60;;;;;;;;;;5094501;28;20059;-73
2022/07/11 16:15:47;;;;;;;3.92;0.60;;;;;;;;;;5096125;28;20032;-74
2022/07/11 16:18:13;;;;;;;0.40;0.40;;;;;;;;;;5096044;28;20024;-73
2022/07/11 16:20:40;;;;;;;2.05;0.73;;;;;;;;;;5094316;28;20024;-73
2022/07/11 16:23:06;;;;;;;1.17;0.90;;;;;;;;;;5096045;28;20028;-73
2022/07/11 16:25:32;;;;;;;1.67;0.60;;;;;;;;;;5095849;28;20484;-72
2022/07/11 16:27:59;;;;;;;5.30;0.85;;;;;;;;;;5095350;28;20421;-73
2022/07/11 16:30:32;;;;;;;1.10;0.70;;;;;;;;;;5095730;28;20447;-72
2022/07/11 16:33:02;;;;;;;1.02;0.73;;;;;;;;;;5095483;28;20016;-73
2022/07/11 16:35:28;;;;;;;2.65;0.90;;;;;;;;;;5094488;28;20036;-73
2022/07/11 16:37:54;;;;;;;1.60;0.77;;;;;;;;;;5095806;28;20528;-73
2022/07/11 16:43:21;;;;;;;3.38;0.93;;;;;;;;;;5095965;28;20089;-74
2022/07/11 16:46:21;;;;;;;1.30;0.70;;;;;;;;;;5111594;27;20400;-73
2022/07/11 16:48:47;;;;;;;1.70;0.60;;;;;;;;;;5110869;28;20016;-73
2022/07/11 16:52:53;;;;;;;1.85;0.80;;;;;;;;;;5111456;27;20389;-73
2022/07/11 16:55:19;;;;;;;1.08;0.70;;;;;;;;;;5110846;28;20055;-73
2022/07/11 16:57:46;;;;;;;1.05;0.70;;;;;;;;;;5111130;28;20016;-73
2022/07/11 17:00:12;;;;;;;2.72;0.93;;;;;;;;;;5111211;28;20035;-73
2022/07/11 17:03:17;;;;;;;2.30;0.90;;;;;;;;;;5070740;28;20415;-74
2022/07/11 17:05:44;;;;;;;2.55;0.90;;;;;;;;;;5070554;28;20117;-74
2022/07/11 17:11:50;;;;;;;2.28;0.77;;;;;;;;;;5111888;27;20416;-73
2022/07/11 17:14:16;;;;;;;5.38;0.90;;;;;;;;;;5111154;28;20032;-74
2022/07/11 17:16:42;;;;;;;1.50;0.90;;;;;;;;;;5109454;28;20020;-73
2022/07/11 17:19:41;;;;;;;2.13;1.08;;;;;;;;;;5091272;27;20440;-74
2022/07/11 17:23:54;;;;;;;2.83;0.80;;;;;;;;;;5070261;28;20473;-74
2022/07/11 17:26:20;;;;;;;3.92;1.40;;;;;;;;;;5070551;28;20032;-73
2022/07/11 17:30:41;;;;;;;3.03;1.00;;;;;;;;;;5110880;27;20431;-72
2022/07/11 17:33:08;;;;;;;0.88;0.70;;;;;;;;;;5111088;28;20023;-73
2022/07/11 17:35:34;;;;;;;1.83;0.90;;;;;;;;;;5111070;28;20106;-73
2022/07/11 17:38:01;;;;;;;1.23;0.70;;;;;;;;;;5110711;28;20476;-73
2022/07/11 17:44:14;;;;;;;2.33;0.93;;;;;;;;;;5111137;27;20446;-72
2022/07/11 17:46:40;;;;;;;2.55;0.68;;;;;;;;;;5111307;28;20030;-73
2022/07/11 17:49:06;;;;;;;1.40;0.95;;;;;;;;;;5111357;28;20193;-72